sensor_id;sensor_type;location;lat;lon;timestamp;temperature;humidity
71237;DHT22;58984;51.960;5.582;2023-05-24T00:01:30;19.40;47.40
71237;DHT22;58984;51.960;5.582;2023-05-24T00:03:55;19.40;47.50
71237;DHT22;58984;51.960;5.582;2023-05-24T00:06:25;19.30;47.40
71237;DHT22;58984;51.960;5.582;2023-05-24T00:08:52;19.30;47.50
71237;DHT22;58984;51.960;5.582;2023-05-24T00:11:18;19.30;47.50
71237;DHT22;58984;51.960;5.582;2023-05-24T00:13:44;19.30;48.20
71237;DHT22;58984;51.960;5.582;2023-05-24T00:16:10;19.30;47.60
71237;DHT22;58984;51.960;5.582;2023-05-24T00:18:35;19.30;47.60
71237;DHT22;58984;51.960;5.582;2023-05-24T00:21:06;19.30;47.60
71237;DHT22;58984;51.960;5.582;2023-05-24T00:23:33;19.20;47.60
71237;DHT22;58984;51.960;5.582;2023-05-24T00:25:58;19.20;47.60
71237;DHT22;58984;51.960;5.582;2023-05-24T00:28:25;19.20;47.60
71237;DHT22;58984;51.960;5.582;2023-05-24T00:30:51;19.20;47.80
71237;DHT22;58984;51.960;5.582;2023-05-24T00:33:16;19.20;47.70
71237;DHT22;58984;51.960;5.582;2023-05-24T00:35:42;19.20;47.80
71237;DHT22;58984;51.960;5.582;2023-05-24T00:38:08;19.10;47.80
71237;DHT22;58984;51.960;5.582;2023-05-24T00:40:33;19.10;47.80
71237;DHT22;58984;51.960;5.582;2023-05-24T00:42:59;19.10;47.80
71237;DHT22;58984;51.960;5.582;2023-05-24T00:45:24;19.10;47.80
71237;DHT22;58984;51.960;5.582;2023-05-24T00:47:50;19.10;47.80
71237;DHT22;58984;51.960;5.582;2023-05-24T00:50:15;19.10;48.40
71237;DHT22;58984;51.960;5.582;2023-05-24T00:52:41;19.00;47.70
71237;DHT22;58984;51.960;5.582;2023-05-24T00:55:08;19.00;47.70
71237;DHT22;58984;51.960;5.582;2023-05-24T00:57:35;19.00;47.70
71237;DHT22;58984;51.960;5.582;2023-05-24T01:00:02;19.00;47.70
71237;DHT22;58984;51.960;5.582;2023-05-24T01:02:28;18.90;47.60
71237;DHT22;58984;51.960;5.582;2023-05-24T01:04:53;19.00;47.70
71237;DHT22;58984;51.960;5.582;2023-05-24T01:07:28;18.90;47.60
71237;DHT22;58984;51.960;5.582;2023-05-24T01:12:45;18.90;47.60
71237;DHT22;58984;51.960;5.582;2023-05-24T01:15:22;18.80;47.60
71237;DHT22;58984;51.960;5.582;2023-05-24T01:18:12;18.80;47.50
71237;DHT22;58984;51.960;5.582;2023-05-24T01:20:40;18.80;47.60
71237;DHT22;58984;51.960;5.582;2023-05-24T01:28:19;18.90;47.70
71237;DHT22;58984;51.960;5.582;2023-05-24T01:30:45;18.90;47.60
71237;DHT22;58984;51.960;5.582;2023-05-24T01:33:11;18.80;47.60
71237;DHT22;58984;51.960;5.582;2023-05-24T01:35:37;18.80;47.90
71237;DHT22;58984;51.960;5.582;2023-05-24T01:38:07;18.70;47.90
71237;DHT22;58984;51.960;5.582;2023-05-24T01:40:34;18.70;48.00
71237;DHT22;58984;51.960;5.582;2023-05-24T01:43:04;18.70;48.00
71237;DHT22;58984;51.960;5.582;2023-05-24T01:45:38;18.60;48.00
71237;DHT22;58984;51.960;5.582;2023-05-24T01:50:57;18.60;48.10
71237;DHT22;58984;51.960;5.582;2023-05-24T01:53:25;18.60;48.10
71237;DHT22;58984;51.960;5.582;2023-05-24T01:55:54;18.60;48.10
71237;DHT22;58984;51.960;5.582;2023-05-24T01:58:22;18.60;48.20
71237;DHT22;58984;51.960;5.582;2023-05-24T02:00:48;18.60;48.20
71237;DHT22;58984;51.960;5.582;2023-05-24T02:03:14;18.60;48.30
71237;DHT22;58984;51.960;5.582;2023-05-24T02:05:41;18.60;48.40
71237;DHT22;58984;51.960;5.582;2023-05-24T02:08:08;18.60;48.50
71237;DHT22;58984;51.960;5.582;2023-05-24T02:10:34;18.50;48.40
71237;DHT22;58984;51.960;5.582;2023-05-24T02:13:02;18.50;48.50
71237;DHT22;58984;51.960;5.582;2023-05-24T02:15:28;18.50;48.50
71237;DHT22;58984;51.960;5.582;2023-05-24T02:17:55;18.50;48.60
71237;DHT22;58984;51.960;5.582;2023-05-24T02:20:20;18.50;48.70
71237;DHT22;58984;51.960;5.582;2023-05-24T02:22:49;18.50;48.70
71237;DHT22;58984;51.960;5.582;2023-05-24T02:25:15;18.50;48.80
71237;DHT22;58984;51.960;5.582;2023-05-24T02:27:41;18.50;48.80
71237;DHT22;58984;51.960;5.582;2023-05-24T02:30:07;18.50;48.90
71237;DHT22;58984;51.960;5.582;2023-05-24T02:32:33;18.40;48.80
71237;DHT22;58984;51.960;5.582;2023-05-24T02:34:59;18.50;49.00
71237;DHT22;58984;51.960;5.582;2023-05-24T02:37:26;18.40;48.90
71237;DHT22;58984;51.960;5.582;2023-05-24T02:39:52;18.40;49.00
71237;DHT22;58984;51.960;5.582;2023-05-24T02:42:18;18.40;49.00
71237;DHT22;58984;51.960;5.582;2023-05-24T02:44:43;18.40;49.00
71237;DHT22;58984;51.960;5.582;2023-05-24T02:47:12;18.40;49.10
71237;DHT22;58984;51.960;5.582;2023-05-24T02:49:38;18.40;49.10
71237;DHT22;58984;51.960;5.582;2023-05-24T02:52:04;18.40;49.10
71237;DHT22;58984;51.960;5.582;2023-05-24T02:54:29;18.40;49.10
71237;DHT22;58984;51.960;5.582;2023-05-24T02:56:55;18.30;49.10
71237;DHT22;58984;51.960;5.582;2023-05-24T02:59:22;18.30;49.10
71237;DHT22;58984;51.960;5.582;2023-05-24T03:01:48;18.30;49.20
71237;DHT22;58984;51.960;5.582;2023-05-24T03:04:13;18.30;49.20
71237;DHT22;58984;51.960;5.582;2023-05-24T03:06:39;18.30;49.20
71237;DHT22;58984;51.960;5.582;2023-05-24T03:09:05;18.30;49.30
71237;DHT22;58984;51.960;5.582;2023-05-24T03:11:31;18.30;49.30
71237;DHT22;58984;51.960;5.582;2023-05-24T03:13:56;18.30;49.30
71237;DHT22;58984;51.960;5.582;2023-05-24T03:16:22;18.30;49.50
71237;DHT22;58984;51.960;5.582;2023-05-24T03:18:49;18.20;49.40
71237;DHT22;58984;51.960;5.582;2023-05-24T03:21:16;18.20;49.50
71237;DHT22;58984;51.960;5.582;2023-05-24T03:23:42;18.20;49.50
71237;DHT22;58984;51.960;5.582;2023-05-24T03:26:07;18.20;49.50
71237;DHT22;58984;51.960;5.582;2023-05-24T03:28:33;18.20;49.50
71237;DHT22;58984;51.960;5.582;2023-05-24T03:30:58;18.20;49.50
71237;DHT22;58984;51.960;5.582;2023-05-24T03:33:24;18.20;49.60
71237;DHT22;58984;51.960;5.582;2023-05-24T03:35:50;18.20;49.70
71237;DHT22;58984;51.960;5.582;2023-05-24T03:38:16;18.20;49.70
71237;DHT22;58984;51.960;5.582;2023-05-24T03:40:41;18.20;49.70
71237;DHT22;58984;51.960;5.582;2023-05-24T03:43:07;18.20;49.70
71237;DHT22;58984;51.960;5.582;2023-05-24T03:45:32;18.20;49.80
71237;DHT22;58984;51.960;5.582;2023-05-24T03:48:00;18.10;49.70
71237;DHT22;58984;51.960;5.582;2023-05-24T03:50:26;18.20;49.80
71237;DHT22;58984;51.960;5.582;2023-05-24T03:52:51;18.10;49.70
71237;DHT22;58984;51.960;5.582;2023-05-24T03:55:17;18.10;49.80
71237;DHT22;58984;51.960;5.582;2023-05-24T03:57:43;18.10;49.80
71237;DHT22;58984;51.960;5.582;2023-05-24T04:00:09;18.10;49.90
71237;DHT22;58984;51.960;5.582;2023-05-24T04:02:35;18.10;49.90
71237;DHT22;58984;51.960;5.582;2023-05-24T04:05:03;18.10;49.90
71237;DHT22;58984;51.960;5.582;2023-05-24T04:07:29;18.10;49.90
71237;DHT22;58984;51.960;5.582;2023-05-24T04:09:58;18.10;49.90
71237;DHT22;58984;51.960;5.582;2023-05-24T04:12:24;18.00;49.90
71237;DHT22;58984;51.960;5.582;2023-05-24T04:14:49;18.10;50.00
71237;DHT22;58984;51.960;5.582;2023-05-24T04:17:16;18.10;50.00
71237;DHT22;58984;51.960;5.582;2023-05-24T04:19:42;18.10;50.10
71237;DHT22;58984;51.960;5.582;2023-05-24T04:22:08;18.00;50.10
71237;DHT22;58984;51.960;5.582;2023-05-24T04:24:33;18.00;50.10
71237;DHT22;58984;51.960;5.582;2023-05-24T04:26:59;18.00;50.10
71237;DHT22;58984;51.960;5.582;2023-05-24T04:29:25;18.00;50.10
71237;DHT22;58984;51.960;5.582;2023-05-24T04:31:52;18.00;50.70
71237;DHT22;58984;51.960;5.582;2023-05-24T04:34:17;18.00;50.10
71237;DHT22;58984;51.960;5.582;2023-05-24T04:36:46;18.00;50.10
71237;DHT22;58984;51.960;5.582;2023-05-24T04:39:14;18.00;50.10
71237;DHT22;58984;51.960;5.582;2023-05-24T04:41:40;18.00;50.20
71237;DHT22;58984;51.960;5.582;2023-05-24T04:44:05;18.00;50.30
71237;DHT22;58984;51.960;5.582;2023-05-24T04:46:31;18.00;50.30
71237;DHT22;58984;51.960;5.582;2023-05-24T04:49:00;18.00;50.40
71237;DHT22;58984;51.960;5.582;2023-05-24T04:51:26;18.00;50.50
71237;DHT22;58984;51.960;5.582;2023-05-24T04:53:52;18.00;50.50
71237;DHT22;58984;51.960;5.582;2023-05-24T04:56:17;17.90;50.40
71237;DHT22;58984;51.960;5.582;2023-05-24T04:58:44;17.90;50.50
71237;DHT22;58984;51.960;5.582;2023-05-24T05:01:10;17.90;50.60
71237;DHT22;58984;51.960;5.582;2023-05-24T05:03:35;17.90;50.60
71237;DHT22;58984;51.960;5.582;2023-05-24T05:06:01;17.90;50.60
71237;DHT22;58984;51.960;5.582;2023-05-24T05:08:26;17.90;50.60
71237;DHT22;58984;51.960;5.582;2023-05-24T05:10:52;17.90;50.80
71237;DHT22;58984;51.960;5.582;2023-05-24T05:13:17;17.90;50.80
71237;DHT22;58984;51.960;5.582;2023-05-24T05:15:43;17.90;50.80
71237;DHT22;58984;51.960;5.582;2023-05-24T05:18:09;17.90;50.90
71237;DHT22;58984;51.960;5.582;2023-05-24T05:20:34;17.90;50.90
71237;DHT22;58984;51.960;5.582;2023-05-24T05:23:00;17.90;50.90
71237;DHT22;58984;51.960;5.582;2023-05-24T05:25:25;17.90;50.90
71237;DHT22;58984;51.960;5.582;2023-05-24T05:27:51;17.90;50.90
71237;DHT22;58984;51.960;5.582;2023-05-24T05:30:17;17.90;51.00
71237;DHT22;58984;51.960;5.582;2023-05-24T05:32:42;17.90;51.10
71237;DHT22;58984;51.960;5.582;2023-05-24T05:35:08;17.90;51.10
71237;DHT22;58984;51.960;5.582;2023-05-24T05:37:33;18.00;51.20
71237;DHT22;58984;51.960;5.582;2023-05-24T05:39:59;18.00;51.30
71237;DHT22;58984;51.960;5.582;2023-05-24T05:42:25;17.90;51.20
71237;DHT22;58984;51.960;5.582;2023-05-24T05:44:50;18.00;51.30
71237;DHT22;58984;51.960;5.582;2023-05-24T05:47:16;17.90;51.20
71237;DHT22;58984;51.960;5.582;2023-05-24T05:49:42;17.90;51.30
71237;DHT22;58984;51.960;5.582;2023-05-24T05:52:08;17.90;51.30
71237;DHT22;58984;51.960;5.582;2023-05-24T05:54:33;18.00;51.40
71237;DHT22;58984;51.960;5.582;2023-05-24T05:56:59;17.90;51.40
71237;DHT22;58984;51.960;5.582;2023-05-24T05:59:24;17.90;51.50
71237;DHT22;58984;51.960;5.582;2023-05-24T06:01:50;17.90;51.50
71237;DHT22;58984;51.960;5.582;2023-05-24T06:04:17;17.90;51.50
71237;DHT22;58984;51.960;5.582;2023-05-24T06:06:43;17.90;51.60
71237;DHT22;58984;51.960;5.582;2023-05-24T06:09:09;17.90;51.60
71237;DHT22;58984;51.960;5.582;2023-05-24T06:11:35;18.00;51.70
71237;DHT22;58984;51.960;5.582;2023-05-24T06:14:01;17.90;51.60
71237;DHT22;58984;51.960;5.582;2023-05-24T06:16:27;17.90;51.60
71237;DHT22;58984;51.960;5.582;2023-05-24T06:18:53;17.90;51.60
71237;DHT22;58984;51.960;5.582;2023-05-24T06:21:19;17.90;51.60
71237;DHT22;58984;51.960;5.582;2023-05-24T06:23:44;17.90;51.60
71237;DHT22;58984;51.960;5.582;2023-05-24T06:26:10;18.00;51.60
71237;DHT22;58984;51.960;5.582;2023-05-24T06:28:36;18.00;51.70
71237;DHT22;58984;51.960;5.582;2023-05-24T06:31:02;18.00;51.70
71237;DHT22;58984;51.960;5.582;2023-05-24T06:33:28;18.00;51.70
71237;DHT22;58984;51.960;5.582;2023-05-24T06:35:53;18.00;51.70
71237;DHT22;58984;51.960;5.582;2023-05-24T06:38:19;18.00;51.70
71237;DHT22;58984;51.960;5.582;2023-05-24T06:40:45;18.00;51.70
71237;DHT22;58984;51.960;5.582;2023-05-24T06:43:10;18.00;51.80
71237;DHT22;58984;51.960;5.582;2023-05-24T06:45:36;18.00;51.90
71237;DHT22;58984;51.960;5.582;2023-05-24T06:48:02;18.00;51.90
71237;DHT22;58984;51.960;5.582;2023-05-24T06:50:27;18.00;51.90
71237;DHT22;58984;51.960;5.582;2023-05-24T06:52:53;18.00;51.90
71237;DHT22;58984;51.960;5.582;2023-05-24T06:55:19;18.10;52.00
71237;DHT22;58984;51.960;5.582;2023-05-24T06:57:45;18.10;52.10
71237;DHT22;58984;51.960;5.582;2023-05-24T07:00:11;18.10;52.00
71237;DHT22;58984;51.960;5.582;2023-05-24T07:02:40;18.10;52.10
71237;DHT22;58984;51.960;5.582;2023-05-24T07:05:06;18.10;52.80
71237;DHT22;58984;51.960;5.582;2023-05-24T07:07:37;18.10;52.10
71237;DHT22;58984;51.960;5.582;2023-05-24T07:10:05;18.20;52.20
71237;DHT22;58984;51.960;5.582;2023-05-24T07:12:31;18.20;52.20
71237;DHT22;58984;51.960;5.582;2023-05-24T07:14:57;18.20;52.40
71237;DHT22;58984;51.960;5.582;2023-05-24T07:17:22;18.20;52.40
71237;DHT22;58984;51.960;5.582;2023-05-24T07:19:48;18.20;52.40
71237;DHT22;58984;51.960;5.582;2023-05-24T07:22:13;18.20;52.40
71237;DHT22;58984;51.960;5.582;2023-05-24T07:24:39;18.20;52.40
71237;DHT22;58984;51.960;5.582;2023-05-24T07:27:05;18.30;52.50
71237;DHT22;58984;51.960;5.582;2023-05-24T07:29:30;18.30;52.50
71237;DHT22;58984;51.960;5.582;2023-05-24T07:31:56;18.30;52.40
71237;DHT22;58984;51.960;5.582;2023-05-24T07:34:22;18.30;52.50
71237;DHT22;58984;51.960;5.582;2023-05-24T07:36:51;18.30;52.50
71237;DHT22;58984;51.960;5.582;2023-05-24T07:39:17;18.40;52.60
71237;DHT22;58984;51.960;5.582;2023-05-24T07:41:43;18.40;52.60
71237;DHT22;58984;51.960;5.582;2023-05-24T07:44:09;18.40;52.60
71237;DHT22;58984;51.960;5.582;2023-05-24T07:46:36;18.40;52.60
71237;DHT22;58984;51.960;5.582;2023-05-24T07:49:02;18.40;52.50
71237;DHT22;58984;51.960;5.582;2023-05-24T07:51:28;18.50;52.60
71237;DHT22;58984;51.960;5.582;2023-05-24T07:53:53;18.50;52.60
71237;DHT22;58984;51.960;5.582;2023-05-24T07:56:19;18.50;52.60
71237;DHT22;58984;51.960;5.582;2023-05-24T07:58:45;18.60;52.60
71237;DHT22;58984;51.960;5.582;2023-05-24T08:01:12;18.60;52.60
71237;DHT22;58984;51.960;5.582;2023-05-24T08:03:38;18.60;52.60
71237;DHT22;58984;51.960;5.582;2023-05-24T08:06:04;18.60;52.60
71237;DHT22;58984;51.960;5.582;2023-05-24T08:08:30;18.60;52.70
71237;DHT22;58984;51.960;5.582;2023-05-24T08:10:55;18.70;52.80
71237;DHT22;58984;51.960;5.582;2023-05-24T08:13:21;18.70;52.80
71237;DHT22;58984;51.960;5.582;2023-05-24T08:15:47;18.80;52.90
71237;DHT22;58984;51.960;5.582;2023-05-24T08:18:12;18.80;52.80
71237;DHT22;58984;51.960;5.582;2023-05-24T08:20:38;18.80;52.90
71237;DHT22;58984;51.960;5.582;2023-05-24T08:23:05;18.80;52.90
71237;DHT22;58984;51.960;5.582;2023-05-24T08:25:30;18.90;53.00
71237;DHT22;58984;51.960;5.582;2023-05-24T08:27:56;18.90;53.00
71237;DHT22;58984;51.960;5.582;2023-05-24T08:30:22;18.90;53.10
71237;DHT22;58984;51.960;5.582;2023-05-24T08:32:47;19.00;53.20
71237;DHT22;58984;51.960;5.582;2023-05-24T08:35:13;19.00;53.10
71237;DHT22;58984;51.960;5.582;2023-05-24T08:37:39;19.00;53.20
71237;DHT22;58984;51.960;5.582;2023-05-24T08:40:05;19.10;53.20
71237;DHT22;58984;51.960;5.582;2023-05-24T08:42:36;19.10;53.20
71237;DHT22;58984;51.960;5.582;2023-05-24T08:45:06;19.10;53.20
71237;DHT22;58984;51.960;5.582;2023-05-24T08:47:34;19.10;53.30
71237;DHT22;58984;51.960;5.582;2023-05-24T08:50:01;19.20;53.30
71237;DHT22;58984;51.960;5.582;2023-05-24T08:52:28;19.20;53.40
71237;DHT22;58984;51.960;5.582;2023-05-24T08:54:57;19.20;53.40
71237;DHT22;58984;51.960;5.582;2023-05-24T08:57:25;19.20;53.40
71237;DHT22;58984;51.960;5.582;2023-05-24T08:59:51;19.30;53.50
71237;DHT22;58984;51.960;5.582;2023-05-24T09:02:20;19.40;53.70
71237;DHT22;58984;51.960;5.582;2023-05-24T09:04:48;19.40;53.70
71237;DHT22;58984;51.960;5.582;2023-05-24T09:07:17;19.40;53.70
71237;DHT22;58984;51.960;5.582;2023-05-24T09:09:47;19.50;53.90
71237;DHT22;58984;51.960;5.582;2023-05-24T09:12:16;19.50;53.70
71237;DHT22;58984;51.960;5.582;2023-05-24T09:14:45;19.60;53.90
71237;DHT22;58984;51.960;5.582;2023-05-24T09:17:11;19.60;53.80
71237;DHT22;58984;51.960;5.582;2023-05-24T09:19:43;19.70;53.80
71237;DHT22;58984;51.960;5.582;2023-05-24T09:22:14;19.70;53.80
71237;DHT22;58984;51.960;5.582;2023-05-24T09:24:51;19.70;53.70
71237;DHT22;58984;51.960;5.582;2023-05-24T09:27:17;19.80;53.80
71237;DHT22;58984;51.960;5.582;2023-05-24T09:29:46;19.80;53.80
71237;DHT22;58984;51.960;5.582;2023-05-24T09:32:18;19.80;53.80
71237;DHT22;58984;51.960;5.582;2023-05-24T09:34:46;19.80;53.60
71237;DHT22;58984;51.960;5.582;2023-05-24T09:37:16;19.80;53.50
71237;DHT22;58984;51.960;5.582;2023-05-24T09:39:46;19.80;53.70
71237;DHT22;58984;51.960;5.582;2023-05-24T09:42:23;19.80;53.70
71237;DHT22;58984;51.960;5.582;2023-05-24T09:45:04;19.80;54.00
71237;DHT22;58984;51.960;5.582;2023-05-24T09:47:34;19.80;53.50
71237;DHT22;58984;51.960;5.582;2023-05-24T09:50:01;19.90;53.50
71237;DHT22;58984;51.960;5.582;2023-05-24T09:52:27;19.90;53.60
71237;DHT22;58984;51.960;5.582;2023-05-24T09:54:53;19.90;53.50
71237;DHT22;58984;51.960;5.582;2023-05-24T09:57:19;19.90;53.60
71237;DHT22;58984;51.960;5.582;2023-05-24T09:59:51;19.90;53.60
71237;DHT22;58984;51.960;5.582;2023-05-24T10:02:19;19.90;53.50
71237;DHT22;58984;51.960;5.582;2023-05-24T10:04:46;20.00;53.60
71237;DHT22;58984;51.960;5.582;2023-05-24T10:07:12;20.00;53.60
71237;DHT22;58984;51.960;5.582;2023-05-24T10:09:38;20.00;53.50
71237;DHT22;58984;51.960;5.582;2023-05-24T10:12:06;20.00;53.50
71237;DHT22;58984;51.960;5.582;2023-05-24T10:14:33;20.00;53.30
71237;DHT22;58984;51.960;5.582;2023-05-24T10:17:01;20.00;53.40
71237;DHT22;58984;51.960;5.582;2023-05-24T10:19:29;20.00;53.40
71237;DHT22;58984;51.960;5.582;2023-05-24T10:21:55;20.00;53.30
71237;DHT22;58984;51.960;5.582;2023-05-24T10:24:25;20.00;53.30
71237;DHT22;58984;51.960;5.582;2023-05-24T10:26:52;20.00;53.30
71237;DHT22;58984;51.960;5.582;2023-05-24T10:29:32;20.00;53.30
71237;DHT22;58984;51.960;5.582;2023-05-24T10:31:59;20.00;53.30
71237;DHT22;58984;51.960;5.582;2023-05-24T10:34:25;20.00;53.30
71237;DHT22;58984;51.960;5.582;2023-05-24T10:36:51;20.00;53.30
71237;DHT22;58984;51.960;5.582;2023-05-24T10:39:20;20.00;53.30
71237;DHT22;58984;51.960;5.582;2023-05-24T10:41:45;20.00;53.30
71237;DHT22;58984;51.960;5.582;2023-05-24T10:44:12;20.10;53.40
71237;DHT22;58984;51.960;5.582;2023-05-24T10:47:07;20.10;53.40
71237;DHT22;58984;51.960;5.582;2023-05-24T10:49:36;20.00;53.30
71237;DHT22;58984;51.960;5.582;2023-05-24T10:52:07;20.10;53.40
71237;DHT22;58984;51.960;5.582;2023-05-24T10:54:33;20.10;53.40
71237;DHT22;58984;51.960;5.582;2023-05-24T10:57:01;20.10;53.40
71237;DHT22;58984;51.960;5.582;2023-05-24T10:59:34;20.20;53.50
71237;DHT22;58984;51.960;5.582;2023-05-24T11:02:06;20.10;53.40
71237;DHT22;58984;51.960;5.582;2023-05-24T11:04:45;20.20;53.50
71237;DHT22;58984;51.960;5.582;2023-05-24T11:07:13;20.10;53.40
71237;DHT22;58984;51.960;5.582;2023-05-24T11:09:41;20.20;53.50
71237;DHT22;58984;51.960;5.582;2023-05-24T11:12:14;20.20;53.50
71237;DHT22;58984;51.960;5.582;2023-05-24T11:14:46;20.20;53.50
71237;DHT22;58984;51.960;5.582;2023-05-24T11:17:13;20.20;53.50
71237;DHT22;58984;51.960;5.582;2023-05-24T11:19:45;20.40;53.50
71237;DHT22;58984;51.960;5.582;2023-05-24T11:22:13;20.30;53.20
71237;DHT22;58984;51.960;5.582;2023-05-24T11:24:40;20.30;53.40
71237;DHT22;58984;51.960;5.582;2023-05-24T11:27:06;20.30;53.50
71237;DHT22;58984;51.960;5.582;2023-05-24T11:29:32;20.40;53.70
71237;DHT22;58984;51.960;5.582;2023-05-24T11:31:59;20.30;53.10
71237;DHT22;58984;51.960;5.582;2023-05-24T11:34:32;20.30;53.50
71237;DHT22;58984;51.960;5.582;2023-05-24T11:37:00;20.40;53.60
71237;DHT22;58984;51.960;5.582;2023-05-24T11:39:34;20.50;53.70
71237;DHT22;58984;51.960;5.582;2023-05-24T11:42:03;20.40;53.60
71237;DHT22;58984;51.960;5.582;2023-05-24T11:44:30;20.50;53.60
71237;DHT22;58984;51.960;5.582;2023-05-24T11:47:00;20.50;53.40
71237;DHT22;58984;51.960;5.582;2023-05-24T11:49:25;20.50;53.50
71237;DHT22;58984;51.960;5.582;2023-05-24T11:51:56;20.60;53.50
71237;DHT22;58984;51.960;5.582;2023-05-24T11:54:23;20.60;53.70
71237;DHT22;58984;51.960;5.582;2023-05-24T11:56:48;20.60;53.60
71237;DHT22;58984;51.960;5.582;2023-05-24T11:59:21;20.60;52.80
71237;DHT22;58984;51.960;5.582;2023-05-24T12:01:47;20.70;53.00
71237;DHT22;58984;51.960;5.582;2023-05-24T12:04:13;20.80;53.00
71237;DHT22;58984;51.960;5.582;2023-05-24T12:06:40;20.80;53.00
71237;DHT22;58984;51.960;5.582;2023-05-24T12:09:06;20.90;53.20
71237;DHT22;58984;51.960;5.582;2023-05-24T12:11:44;20.90;53.20
71237;DHT22;58984;51.960;5.582;2023-05-24T12:14:15;20.80;53.10
71237;DHT22;58984;51.960;5.582;2023-05-24T12:16:42;20.90;53.10
71237;DHT22;58984;51.960;5.582;2023-05-24T12:19:12;20.90;53.10
71237;DHT22;58984;51.960;5.582;2023-05-24T12:21:40;20.90;53.10
71237;DHT22;58984;51.960;5.582;2023-05-24T12:24:25;20.90;53.00
71237;DHT22;58984;51.960;5.582;2023-05-24T12:26:51;20.90;53.30
71237;DHT22;58984;51.960;5.582;2023-05-24T12:29:18;21.00;53.20
71237;DHT22;58984;51.960;5.582;2023-05-24T12:31:48;21.00;53.20
71237;DHT22;58984;51.960;5.582;2023-05-24T12:34:20;21.00;53.20
71237;DHT22;58984;51.960;5.582;2023-05-24T12:36:46;21.00;53.20
71237;DHT22;58984;51.960;5.582;2023-05-24T12:39:28;21.00;53.20
71237;DHT22;58984;51.960;5.582;2023-05-24T12:41:59;21.00;53.20
71237;DHT22;58984;51.960;5.582;2023-05-24T12:44:34;21.10;53.20
71237;DHT22;58984;51.960;5.582;2023-05-24T12:47:01;21.00;53.10
71237;DHT22;58984;51.960;5.582;2023-05-24T12:49:27;21.10;53.20
71237;DHT22;58984;51.960;5.582;2023-05-24T12:51:53;21.10;53.10
71237;DHT22;58984;51.960;5.582;2023-05-24T12:54:22;21.10;53.70
71237;DHT22;58984;51.960;5.582;2023-05-24T12:56:50;21.20;53.20
71237;DHT22;58984;51.960;5.582;2023-05-24T12:59:15;21.20;53.10
71237;DHT22;58984;51.960;5.582;2023-05-24T13:01:41;21.20;53.10
71237;DHT22;58984;51.960;5.582;2023-05-24T13:04:08;21.20;53.00
71237;DHT22;58984;51.960;5.582;2023-05-24T13:06:35;21.20;53.10
71237;DHT22;58984;51.960;5.582;2023-05-24T13:09:02;21.20;53.10
71237;DHT22;58984;51.960;5.582;2023-05-24T13:11:28;21.20;53.10
71237;DHT22;58984;51.960;5.582;2023-05-24T13:13:55;21.20;53.20
71237;DHT22;58984;51.960;5.582;2023-05-24T13:16:22;21.30;53.20
71237;DHT22;58984;51.960;5.582;2023-05-24T13:18:49;21.30;53.40
71237;DHT22;58984;51.960;5.582;2023-05-24T13:21:15;21.30;53.30
71237;DHT22;58984;51.960;5.582;2023-05-24T13:23:42;21.30;53.20
71237;DHT22;58984;51.960;5.582;2023-05-24T13:26:08;21.30;53.40
71237;DHT22;58984;51.960;5.582;2023-05-24T13:28:33;21.30;53.30
71237;DHT22;58984;51.960;5.582;2023-05-24T13:31:00;21.30;53.20
71237;DHT22;58984;51.960;5.582;2023-05-24T13:33:25;21.30;53.00
71237;DHT22;58984;51.960;5.582;2023-05-24T13:35:52;21.40;52.90
71237;DHT22;58984;51.960;5.582;2023-05-24T13:38:19;21.40;52.90
71237;DHT22;58984;51.960;5.582;2023-05-24T13:40:45;21.40;52.90
71237;DHT22;58984;51.960;5.582;2023-05-24T13:43:11;21.40;53.00
71237;DHT22;58984;51.960;5.582;2023-05-24T13:45:37;21.40;52.90
71237;DHT22;58984;51.960;5.582;2023-05-24T13:48:02;21.50;53.00
71237;DHT22;58984;51.960;5.582;2023-05-24T13:50:35;21.50;53.00
71237;DHT22;58984;51.960;5.582;2023-05-24T13:53:01;21.40;53.00
71237;DHT22;58984;51.960;5.582;2023-05-24T13:55:28;21.50;53.10
71237;DHT22;58984;51.960;5.582;2023-05-24T13:57:55;21.50;53.20
71237;DHT22;58984;51.960;5.582;2023-05-24T14:00:22;21.50;53.20
71237;DHT22;58984;51.960;5.582;2023-05-24T14:02:48;21.50;53.20
71237;DHT22;58984;51.960;5.582;2023-05-24T14:05:14;21.50;53.00
71237;DHT22;58984;51.960;5.582;2023-05-24T14:07:39;21.60;53.20
71237;DHT22;58984;51.960;5.582;2023-05-24T14:10:06;21.60;53.10
71237;DHT22;58984;51.960;5.582;2023-05-24T14:12:32;21.60;53.20
71237;DHT22;58984;51.960;5.582;2023-05-24T14:14:58;21.60;53.00
71237;DHT22;58984;51.960;5.582;2023-05-24T14:17:23;21.60;53.00
71237;DHT22;58984;51.960;5.582;2023-05-24T14:19:49;21.60;53.00
71237;DHT22;58984;51.960;5.582;2023-05-24T14:22:15;21.60;53.00
71237;DHT22;58984;51.960;5.582;2023-05-24T14:24:40;21.60;53.00
71237;DHT22;58984;51.960;5.582;2023-05-24T14:27:06;21.60;53.00
71237;DHT22;58984;51.960;5.582;2023-05-24T14:29:32;21.60;53.00
71237;DHT22;58984;51.960;5.582;2023-05-24T14:31:57;21.60;52.90
71237;DHT22;58984;51.960;5.582;2023-05-24T14:34:23;21.60;52.70
71237;DHT22;58984;51.960;5.582;2023-05-24T14:36:48;21.60;52.60
71237;DHT22;58984;51.960;5.582;2023-05-24T14:39:14;21.60;52.70
71237;DHT22;58984;51.960;5.582;2023-05-24T14:41:40;21.60;52.70
71237;DHT22;58984;51.960;5.582;2023-05-24T14:44:05;21.60;52.70
71237;DHT22;58984;51.960;5.582;2023-05-24T14:46:31;21.60;52.60
71237;DHT22;58984;51.960;5.582;2023-05-24T14:48:57;21.60;52.50
71237;DHT22;58984;51.960;5.582;2023-05-24T14:51:22;21.60;52.50
71237;DHT22;58984;51.960;5.582;2023-05-24T14:53:48;21.60;52.50
71237;DHT22;58984;51.960;5.582;2023-05-24T14:56:14;21.60;52.20
71237;DHT22;58984;51.960;5.582;2023-05-24T14:58:40;21.60;52.20
71237;DHT22;58984;51.960;5.582;2023-05-24T15:01:06;21.60;52.10
71237;DHT22;58984;51.960;5.582;2023-05-24T15:03:35;21.60;51.90
71237;DHT22;58984;51.960;5.582;2023-05-24T15:06:01;21.60;51.90
71237;DHT22;58984;51.960;5.582;2023-05-24T15:08:28;21.60;51.80
71237;DHT22;58984;51.960;5.582;2023-05-24T15:10:53;21.60;51.70
71237;DHT22;58984;51.960;5.582;2023-05-24T15:13:19;21.60;51.70
71237;DHT22;58984;51.960;5.582;2023-05-24T15:15:44;21.60;51.70
71237;DHT22;58984;51.960;5.582;2023-05-24T15:18:10;21.60;51.60
71237;DHT22;58984;51.960;5.582;2023-05-24T15:20:36;21.50;51.40
71237;DHT22;58984;51.960;5.582;2023-05-24T15:23:02;21.50;51.40
71237;DHT22;58984;51.960;5.582;2023-05-24T15:25:28;21.50;51.50
71237;DHT22;58984;51.960;5.582;2023-05-24T15:27:53;21.50;51.40
71237;DHT22;58984;51.960;5.582;2023-05-24T15:30:20;21.50;51.40
71237;DHT22;58984;51.960;5.582;2023-05-24T15:32:47;21.50;51.40
71237;DHT22;58984;51.960;5.582;2023-05-24T15:35:13;21.50;51.40
71237;DHT22;58984;51.960;5.582;2023-05-24T15:37:39;21.50;51.50
71237;DHT22;58984;51.960;5.582;2023-05-24T15:40:07;21.50;51.50